Time;durP1;ratioP1;P1;durP2;ratioP2;P2;SDS_P1;SDS_P2;PMS_P1;PMS_P2;Temp;Humidity;BMP_temperature;BMP_pressure;BME280_temperature;BME280_humidity;BME280_pressure;Samples;Min_cycle;Max_cycle;Signal;HPM_P1;HPM_P2
2022/12/27 00:01:20;;;;;;;57.63;42.30;;;12.30;94.30;;;;;;6337955;22;20030;-77
2022/12/27 00:03:46;;;;;;;60.90;43.10;;;12.30;94.30;;;;;;6338186;22;20409;-77
2022/12/27 00:06:18;;;;;;;56.00;42.03;;;12.30;94.30;;;;;;6336833;22;20010;-80
2022/12/27 00:08:44;;;;;;;58.83;40.63;;;12.30;94.40;;;;;;6337222;22;20009;-81
2022/12/27 00:11:14;;;;;;;58.00;42.90;;;12.30;94.30;;;;;;6336267;22;20300;-81
2022/12/27 00:13:40;;;;;;;61.90;43.13;;;12.30;94.30;;;;;;6336341;22;20002;-81
2022/12/27 00:16:08;;;;;;;56.33;40.13;;;12.30;94.30;;;;;;6337186;22;20029;-74
2022/12/27 00:18:34;;;;;;;57.05;41.20;;;12.40;94.30;;;;;;6336186;22;19999;-74
2022/12/27 00:21:01;;;;;;;55.50;40.30;;;12.40;94.30;;;;;;6335907;22;20063;-74
2022/12/27 00:23:32;;;;;;;57.40;40.30;;;12.40;94.30;;;;;;6337828;22;20033;-80
2022/12/27 00:26:13;;;;;;;58.55;41.88;;;12.40;94.30;;;;;;6310071;22;20013;-75
2022/12/27 00:28:39;;;;;;;59.25;40.97;;;12.40;94.30;;;;;;6308733;22;20037;-75
2022/12/27 00:31:06;;;;;;;61.13;41.22;;;12.40;94.30;;;;;;6336425;22;20002;-81
2022/12/27 00:33:34;;;;;;;59.42;41.97;;;12.40;94.30;;;;;;6336609;22;20056;-75
2022/12/27 00:36:01;;;;;;;57.85;41.50;;;12.40;94.30;;;;;;6309981;22;19999;-75
2022/12/27 00:38:27;;;;;;;61.13;42.78;;;12.40;94.30;;;;;;6310780;22;20002;-74
2022/12/27 00:40:53;;;;;;;61.60;45.35;;;12.40;94.30;;;;;;6336465;22;19995;-74
2022/12/27 00:43:21;;;;;;;57.10;42.63;;;12.40;94.30;;;;;;6337455;22;20010;-79
2022/12/27 00:45:46;;;;;;;58.65;41.95;;;12.50;94.40;;;;;;6337583;22;20002;-80
2022/12/27 00:48:12;;;;;;;60.25;44.70;;;12.40;94.40;;;;;;6337843;22;19999;-80
2022/12/27 00:50:39;;;;;;;65.22;44.38;;;12.40;94.30;;;;;;6336965;22;20070;-81
2022/12/27 00:53:05;;;;;;;60.72;42.88;;;12.30;94.30;;;;;;6338280;22;19994;-74
2022/12/27 00:55:31;;;;;;;60.83;43.58;;;12.40;94.30;;;;;;6309695;22;20007;-76
2022/12/27 00:57:57;;;;;;;64.38;43.33;;;12.40;94.30;;;;;;6338055;22;20034;-75
2022/12/27 01:00:22;;;;;;;58.22;43.15;;;12.40;94.30;;;;;;6337100;22;19998;-80
2022/12/27 01:02:48;;;;;;;62.95;43.95;;;12.30;94.30;;;;;;6309862;22;20043;-79
2022/12/27 01:05:14;;;;;;;63.55;44.15;;;12.30;94.30;;;;;;6337751;22;19999;-74
2022/12/27 01:07:39;;;;;;;60.10;42.55;;;12.30;94.30;;;;;;6338091;22;19999;-74
2022/12/27 01:10:05;;;;;;;65.13;46.33;;;12.30;94.40;;;;;;6337126;22;20007;-74
2022/12/27 01:12:33;;;;;;;58.40;45.47;;;12.30;94.40;;;;;;6336467;22;20068;-74
2022/12/27 01:14:58;;;;;;;66.38;46.70;;;12.20;94.40;;;;;;6337934;22;19999;-73
2022/12/27 01:17:24;;;;;;;67.07;46.85;;;12.20;94.60;;;;;;6338413;22;20076;-78
2022/12/27 01:19:49;;;;;;;65.07;47.88;;;12.20;94.30;;;;;;6338082;22;19998;-78
2022/12/27 01:22:16;;;;;;;69.15;47.95;;;12.20;94.20;;;;;;6338656;22;20410;-78
2022/12/27 01:24:41;;;;;;;64.90;47.17;;;12.10;94.20;;;;;;6340108;22;20003;-78
2022/12/27 01:27:07;;;;;;;69.80;51.47;;;12.10;94.30;;;;;;6339878;22;20427;-74
2022/12/27 01:29:32;;;;;;;65.20;46.63;;;12.00;94.10;;;;;;6339634;22;20332;-78
2022/12/27 01:31:58;;;;;;;61.67;45.28;;;11.90;94.20;;;;;;6339639;22;20396;-74
2022/12/27 01:34:24;;;;;;;59.63;45.50;;;12.00;94.20;;;;;;6339556;22;20006;-78
2022/12/27 01:36:49;;;;;;;61.63;45.33;;;11.90;94.20;;;;;;6339674;22;20073;-73
2022/12/27 01:39:15;;;;;;;59.35;45.15;;;11.90;94.20;;;;;;6339429;22;20039;-73
2022/12/27 01:44:42;;;;;;;63.45;45.78;;;11.90;94.20;;;;;;6339554;22;20488;-73
2022/12/27 01:47:11;;;;;;;59.90;45.10;;;11.90;94.20;;;;;;6338968;22;19998;-73
2022/12/27 01:49:44;;;;;;;61.38;46.03;;;11.90;94.20;;;;;;6339395;22;20003;-73
2022/12/27 01:52:12;;;;;;;64.47;47.25;;;11.90;94.20;;;;;;6338554;22;20072;-74
2022/12/27 01:54:39;;;;;;;63.22;46.13;;;11.80;94.20;;;;;;6339877;22;20428;-74
2022/12/27 01:57:05;;;;;;;62.40;44.30;;;11.80;94.20;;;;;;6338971;22;20046;-78
2022/12/27 01:59:33;;;;;;;59.58;44.15;;;11.80;94.30;;;;;;6339563;22;20421;-78
2022/12/27 02:02:00;;;;;;;63.33;45.08;;;11.80;94.30;;;;;;6339588;22;20002;-78
2022/12/27 02:04:31;;;;;;;61.63;44.15;;;11.70;94.30;;;;;;6339757;22;20010;-79
2022/12/27 02:06:57;;;;;;;62.42;45.40;;;11.70;94.40;;;;;;6339665;22;20002;-80
2022/12/27 02:09:47;;;;;;;62.30;43.83;;;11.70;94.40;;;;;;6339392;22;20081;-80
2022/12/27 02:12:13;;;;;;;56.28;41.63;;;11.70;94.40;;;;;;6339331;22;20021;-74
2022/12/27 02:14:45;;;;;;;59.38;43.40;;;11.70;94.30;;;;;;6338953;22;19999;-74
2022/12/27 02:17:31;;;;;;;57.92;43.58;;;11.60;94.40;;;;;;6338770;22;20070;-74
2022/12/27 02:20:18;;;;;;;57.67;43.47;;;11.60;94.60;;;;;;6337297;22;20033;-74
2022/12/27 02:26:43;;;;;;;59.97;43.55;;;11.50;94.40;;;;;;6299282;22;20045;-74
2022/12/27 02:29:34;;;;;;;60.33;45.38;;;11.50;94.50;;;;;;6338241;22;20003;-74
2022/12/27 02:32:32;;;;;;;68.70;48.63;;;11.50;94.50;;;;;;6338124;22;20005;-74
2022/12/27 02:35:25;;;;;;;64.82;46.28;;;11.50;94.60;;;;;;6286064;22;20090;-73
2022/12/27 02:38:03;;;;;;;63.55;45.88;;;11.50;94.70;;;;;;6338888;22;20010;-79
2022/12/27 02:55:14;;;;;;;66.15;45.90;;;11.60;94.80;;;;;;6338419;22;20447;-78
2022/12/27 02:57:58;;;;;;;66.20;46.53;;;11.60;94.70;;;;;;6338455;22;20014;-74
2022/12/27 03:03:22;;;;;;;61.08;44.55;;;11.60;94.80;;;;;;6338854;22;20509;-73
2022/12/27 03:09:07;;;;;;;63.65;45.92;;;11.60;94.90;;;;;;6336969;22;20017;-74
2022/12/27 03:17:39;;;;;;;62.67;41.65;;;11.60;95.00;;;;;;6338206;22;20041;-73
2022/12/27 03:26:01;;;;;;;62.22;43.35;;;11.70;94.90;;;;;;6243087;23;20012;-74
2022/12/27 03:34:38;;;;;;;57.72;41.92;;;11.80;94.90;;;;;;6338577;22;20058;-74
2022/12/27 03:40:37;;;;;;;61.60;43.50;;;11.80;94.90;;;;;;6337949;22;20321;-74
2022/12/27 03:43:15;;;;;;;64.00;43.40;;;11.80;94.80;;;;;;6338056;22;20302;-74
2022/12/27 03:49:04;;;;;;;62.20;43.88;;;11.90;94.80;;;;;;6337375;22;20013;-73
2022/12/27 03:51:40;;;;;;;59.45;43.42;;;11.90;94.80;;;;;;6336882;22;19999;-72
2022/12/27 03:54:14;;;;;;;64.22;44.00;;;11.90;94.70;;;;;;6337157;22;20045;-72
2022/12/27 03:56:41;;;;;;;63.78;42.20;;;11.90;94.70;;;;;;6337819;22;19998;-73
2022/12/27 03:59:08;;;;;;;61.92;43.88;;;11.90;94.80;;;;;;6337322;22;20317;-73
2022/12/27 04:01:34;;;;;;;60.83;44.25;;;11.90;94.80;;;;;;6338224;22;20010;-74
2022/12/27 04:04:00;;;;;;;57.00;41.95;;;11.90;94.80;;;;;;6337992;22;20069;-74
2022/12/27 04:06:25;;;;;;;61.63;43.53;;;11.90;94.80;;;;;;6337394;22;19995;-74
2022/12/27 04:36:11;;;;;;;61.22;40.88;;;12.00;94.60;;;;;;6338329;22;20046;-73
2022/12/27 04:38:37;;;;;;;62.35;42.90;;;12.00;94.60;;;;;;6336786;22;19995;-79
2022/12/27 04:55:08;;;;;;;58.67;42.28;;;11.90;94.70;;;;;;6338500;22;20443;-80
2022/12/27 04:57:37;;;;;;;56.28;40.58;;;11.90;94.60;;;;;;6337438;22;20488;-80
2022/12/27 05:02:49;;;;;;;57.83;41.65;;;11.90;94.70;;;;;;6338249;22;20041;-80
2022/12/27 05:05:15;;;;;;;60.22;41.95;;;11.80;94.70;;;;;;6337955;22;20007;-80
2022/12/27 05:16:05;;;;;;;59.67;42.00;;;11.80;94.70;;;;;;6337536;22;20025;-79
2022/12/27 05:18:31;;;;;;;61.05;42.92;;;11.80;94.70;;;;;;6337413;22;20003;-80
2022/12/27 05:21:05;;;;;;;57.42;41.63;;;11.80;94.70;;;;;;6338191;22;20301;-81
2022/12/27 05:26:22;;;;;;;57.08;41.38;;;11.70;94.70;;;;;;6337954;22;20325;-80
2022/12/27 05:28:51;;;;;;;59.08;41.33;;;11.70;94.70;;;;;;6336932;22;20481;-79
2022/12/27 05:31:17;;;;;;;53.63;39.83;;;11.70;94.70;;;;;;6337778;22;19999;-79
2022/12/27 05:33:42;;;;;;;56.55;40.67;;;11.70;94.70;;;;;;6337967;22;20435;-79
2022/12/27 05:36:09;;;;;;;56.63;40.88;;;11.60;94.60;;;;;;6337985;22;19995;-79
2022/12/27 05:38:34;;;;;;;59.08;42.63;;;11.60;94.60;;;;;;6308867;22;20003;-80
2022/12/27 05:41:01;;;;;;;61.63;43.22;;;11.60;94.70;;;;;;6336828;22;19999;-79
2022/12/27 05:43:27;;;;;;;56.33;41.25;;;11.60;94.70;;;;;;6337096;22;20044;-79
2022/12/27 05:45:54;;;;;;;58.60;42.00;;;11.50;94.70;;;;;;6337942;22;20027;-80
2022/12/27 05:48:21;;;;;;;57.25;41.60;;;11.60;94.80;;;;;;6309225;22;20003;-78
2022/12/27 05:50:47;;;;;;;55.97;40.53;;;11.50;94.80;;;;;;6336965;22;20003;-78
2022/12/27 05:53:13;;;;;;;55.17;40.85;;;11.50;94.80;;;;;;6336792;22;20029;-78
2022/12/27 05:55:39;;;;;;;52.17;38.90;;;11.50;94.80;;;;;;6337590;22;20045;-74
2022/12/27 05:58:05;;;;;;;58.45;41.90;;;11.50;94.80;;;;;;6336741;22;19999;-73
2022/12/27 06:00:30;;;;;;;61.63;41.95;;;11.50;94.80;;;;;;6337538;22;20359;-74
2022/12/27 06:02:56;;;;;;;57.85;41.17;;;11.50;94.80;;;;;;6336856;22;20006;-73
2022/12/27 06:05:22;;;;;;;59.10;42.40;;;11.50;94.80;;;;;;6337960;22;20003;-73
2022/12/27 06:07:47;;;;;;;58.03;41.50;;;11.50;94.80;;;;;;6336796;22;20306;-73
2022/12/27 06:10:14;;;;;;;53.90;39.28;;;11.50;94.80;;;;;;6311429;22;20003;-74
2022/12/27 06:12:40;;;;;;;56.80;39.90;;;11.50;94.90;;;;;;6310954;22;20081;-73
2022/12/27 06:15:06;;;;;;;58.45;40.92;;;11.40;94.80;;;;;;6338954;22;20037;-74
2022/12/27 06:17:32;;;;;;;53.83;39.70;;;11.40;94.80;;;;;;6335491;22;19999;-74
2022/12/27 06:19:57;;;;;;;55.33;39.80;;;11.40;94.80;;;;;;6338769;22;20006;-74
2022/12/27 06:22:23;;;;;;;57.80;40.45;;;11.40;94.80;;;;;;6338573;22;20010;-73
2022/12/27 06:24:49;;;;;;;52.17;39.42;;;11.40;94.80;;;;;;6338867;22;20009;-73
2022/12/27 06:27:15;;;;;;;53.35;39.17;;;11.40;94.80;;;;;;6338492;22;20057;-74
2022/12/27 06:29:40;;;;;;;57.83;41.20;;;11.40;94.90;;;;;;6338347;22;20010;-73
2022/12/27 06:32:06;;;;;;;55.42;39.25;;;11.40;94.80;;;;;;6338568;22;19998;-74
2022/12/27 06:34:32;;;;;;;55.97;40.33;;;11.30;94.80;;;;;;6338944;22;19994;-73
2022/12/27 06:36:57;;;;;;;61.60;41.45;;;11.30;94.90;;;;;;6338446;22;19995;-73
2022/12/27 06:39:23;;;;;;;55.88;40.08;;;11.30;94.80;;;;;;6337847;22;20010;-73
2022/12/27 06:41:49;;;;;;;57.42;42.50;;;11.30;94.90;;;;;;6338431;22;20030;-73
2022/12/27 06:44:15;;;;;;;53.03;40.25;;;11.30;94.90;;;;;;6338553;22;20328;-74
2022/12/27 06:46:41;;;;;;;54.88;39.65;;;11.30;94.90;;;;;;6338717;22;20436;-77
2022/12/27 06:49:10;;;;;;;57.13;40.70;;;11.30;94.90;;;;;;6337417;22;20067;-73
2022/12/27 06:51:35;;;;;;;56.03;40.33;;;11.30;94.90;;;;;;6338397;22;20025;-73
2022/12/27 06:54:01;;;;;;;55.97;40.88;;;11.30;94.90;;;;;;6338367;22;19994;-73
2022/12/27 06:56:27;;;;;;;53.85;40.80;;;11.30;94.90;;;;;;6338076;22;19994;-73
2022/12/27 06:58:53;;;;;;;59.65;42.75;;;11.30;94.80;;;;;;6338057;22;20026;-72
2022/12/27 07:01:26;;;;;;;59.00;41.88;;;11.20;94.80;;;;;;6310525;22;20432;-72
2022/12/27 07:03:55;;;;;;;57.95;40.72;;;11.20;94.80;;;;;;6339099;22;20312;-72
2022/12/27 07:06:22;;;;;;;59.63;41.35;;;11.20;94.80;;;;;;6338775;22;20037;-75
2022/12/27 07:08:49;;;;;;;63.20;42.63;;;11.30;94.80;;;;;;6337331;22;20032;-72
2022/12/27 07:11:16;;;;;;;58.35;42.78;;;11.20;94.80;;;;;;6337852;22;20022;-72
2022/12/27 07:13:44;;;;;;;56.45;42.17;;;11.20;94.70;;;;;;6338753;22;20002;-72
2022/12/27 07:16:16;;;;;;;59.30;42.17;;;11.20;94.70;;;;;;6337518;22;20321;-71
2022/12/27 07:18:43;;;;;;;57.95;42.50;;;11.20;94.80;;;;;;6335996;22;20010;-72
2022/12/27 07:21:20;;;;;;;60.83;43.92;;;11.20;94.80;;;;;;6336676;22;20324;-80
2022/12/27 07:23:49;;;;;;;59.95;41.47;;;11.20;94.80;;;;;;6336902;22;20003;-80
2022/12/27 07:26:18;;;;;;;59.15;42.17;;;11.20;94.70;;;;;;6335552;22;20009;-79
2022/12/27 07:28:44;;;;;;;59.03;42.05;;;11.20;94.90;;;;;;6337422;22;20353;-79
2022/12/27 07:31:14;;;;;;;55.13;41.67;;;11.20;94.90;;;;;;6336424;22;20003;-71
2022/12/27 07:33:39;;;;;;;57.92;40.70;;;11.20;94.80;;;;;;6337684;22;19999;-72
2022/12/27 07:36:07;;;;;;;60.58;41.15;;;11.20;94.70;;;;;;6337516;22;20366;-77
2022/12/27 07:38:33;;;;;;;57.40;41.33;;;11.20;94.80;;;;;;6338107;22;20006;-79
2022/12/27 07:41:00;;;;;;;54.50;40.28;;;11.20;95.00;;;;;;6337260;22;20065;-78
2022/12/27 07:43:29;;;;;;;53.95;39.78;;;11.20;94.90;;;;;;6310346;22;20003;-80
2022/12/27 07:46:01;;;;;;;58.10;40.55;;;11.20;94.90;;;;;;6310572;22;20014;-79
2022/12/27 07:48:27;;;;;;;61.13;41.50;;;11.20;94.90;;;;;;6338128;22;19995;-80
2022/12/27 07:50:54;;;;;;;53.67;39.90;;;11.20;94.90;;;;;;6309737;22;20037;-80
2022/12/27 07:53:20;;;;;;;56.75;41.70;;;11.20;94.90;;;;;;6337550;22;20092;-81
2022/12/27 07:55:47;;;;;;;54.25;40.67;;;11.20;94.90;;;;;;6337498;22;20389;-80
2022/12/27 07:58:13;;;;;;;54.53;38.88;;;11.30;94.90;;;;;;6338326;22;20373;-80
2022/12/27 08:00:39;;;;;;;51.33;37.88;;;11.30;94.90;;;;;;6309603;22;20003;-79
2022/12/27 08:03:05;;;;;;;53.78;37.13;;;11.30;94.90;;;;;;6337572;22;20073;-80
2022/12/27 08:05:30;;;;;;;49.30;35.90;;;11.30;94.90;;;;;;6333897;22;20002;-80
2022/12/27 08:08:00;;;;;;;49.95;35.88;;;11.40;94.90;;;;;;6337436;22;20009;-79
2022/12/27 08:10:27;;;;;;;47.53;34.63;;;11.30;94.70;;;;;;6310329;22;20144;-79
2022/12/27 08:12:52;;;;;;;49.10;35.45;;;11.40;94.90;;;;;;6308345;22;20003;-74
2022/12/27 08:15:18;;;;;;;50.53;35.15;;;11.40;94.90;;;;;;6336411;22;19998;-78
2022/12/27 08:17:44;;;;;;;48.88;35.63;;;11.40;94.80;;;;;;6336769;22;20389;-78
2022/12/27 08:20:13;;;;;;;51.35;37.40;;;11.50;94.60;;;;;;6337603;22;20010;-73
2022/12/27 08:22:39;;;;;;;51.42;37.83;;;11.50;94.70;;;;;;6336749;22;20450;-75
2022/12/27 08:25:05;;;;;;;52.20;37.40;;;11.50;94.70;;;;;;6338422;22;20003;-74
2022/12/27 08:27:31;;;;;;;48.15;35.28;;;11.50;94.80;;;;;;6336932;22;20003;-74
2022/12/27 08:29:56;;;;;;;46.72;34.63;;;11.50;94.80;;;;;;6310443;22;20014;-74
2022/12/27 08:32:22;;;;;;;47.10;32.72;;;11.50;94.60;;;;;;6336868;22;19999;-73
2022/12/27 08:34:49;;;;;;;41.45;32.05;;;11.50;94.80;;;;;;6336547;22;20599;-77
2022/12/27 08:37:14;;;;;;;45.08;32.25;;;11.60;94.30;;;;;;6309604;22;20266;-77
2022/12/27 08:39:41;;;;;;;43.78;31.90;;;11.60;94.50;;;;;;6338009;22;19999;-78
2022/12/27 08:42:10;;;;;;;40.50;29.38;;;11.60;94.40;;;;;;6336869;22;20003;-79
2022/12/27 08:44:36;;;;;;;42.10;31.63;;;11.70;94.30;;;;;;6336287;22;20013;-78
2022/12/27 08:47:03;;;;;;;42.70;30.45;;;11.70;94.20;;;;;;6337250;22;20401;-78
2022/12/27 08:49:29;;;;;;;42.67;30.60;;;11.70;94.20;;;;;;6336719;22;19998;-77
2022/12/27 08:51:54;;;;;;;38.38;29.33;;;11.80;93.90;;;;;;6337103;22;20074;-77
2022/12/27 08:54:21;;;;;;;43.47;31.80;;;11.80;93.80;;;;;;6310391;22;20413;-73
2022/12/27 08:56:47;;;;;;;42.35;30.50;;;11.90;93.90;;;;;;6309969;22;20577;-74
2022/12/27 08:59:13;;;;;;;42.78;30.63;;;11.90;93.70;;;;;;6310172;22;20003;-78
2022/12/27 09:01:39;;;;;;;43.85;30.75;;;11.90;93.50;;;;;;6337220;22;20047;-74
2022/12/27 09:04:06;;;;;;;41.25;29.33;;;11.90;93.60;;;;;;6335668;22;20030;-78
2022/12/27 09:06:31;;;;;;;40.28;29.02;;;12.00;93.60;;;;;;6309452;22;20015;-80
2022/12/27 09:08:58;;;;;;;34.78;25.33;;;12.00;93.50;;;;;;6334245;22;20399;-74
2022/12/27 09:11:25;;;;;;;32.40;23.98;;;12.00;93.30;;;;;;6336757;22;20001;-74
2022/12/27 09:13:52;;;;;;;34.33;24.00;;;12.10;93.20;;;;;;6333910;22;20278;-80
2022/12/27 09:16:24;;;;;;;33.63;24.17;;;12.10;93.00;;;;;;6338111;22;20116;-80
2022/12/27 09:18:51;;;;;;;34.92;24.65;;;12.20;92.90;;;;;;6337287;22;19995;-74
2022/12/27 09:21:19;;;;;;;32.00;24.17;;;12.20;92.90;;;;;;6337190;22;19998;-74
2022/12/27 09:23:46;;;;;;;33.20;23.45;;;12.20;92.70;;;;;;6337190;22;19995;-74
2022/12/27 09:26:13;;;;;;;31.60;23.83;;;12.30;92.70;;;;;;6309995;22;20006;-74
2022/12/27 09:28:39;;;;;;;31.48;22.38;;;12.30;92.50;;;;;;6337967;22;20017;-74
2022/12/27 09:31:07;;;;;;;29.38;21.83;;;12.30;92.50;;;;;;6335309;22;19998;-74
2022/12/27 09:33:33;;;;;;;27.67;21.25;;;12.40;92.40;;;;;;6337886;22;20078;-74
2022/12/27 09:36:11;;;;;;;28.13;20.65;;;12.50;92.30;;;;;;6335987;22;20425;-74
2022/12/27 09:38:38;;;;;;;29.27;20.10;;;12.50;92.00;;;;;;6335414;22;20006;-74
2022/12/27 09:41:25;;;;;;;29.77;21.38;;;12.50;91.90;;;;;;6335580;22;20436;-74
2022/12/27 09:44:28;;;;;;;27.35;21.48;;;12.60;91.80;;;;;;6259503;22;20402;-74
2022/12/27 09:47:23;;;;;;;29.55;21.65;;;12.60;91.60;;;;;;6337275;22;20003;-80
2022/12/27 09:50:01;;;;;;;33.33;22.15;;;12.70;91.60;;;;;;6262921;22;20417;-74
2022/12/27 09:52:49;;;;;;;29.52;22.42;;;12.70;91.40;;;;;;6336720;22;20007;-80
2022/12/27 09:55:40;;;;;;;28.42;21.08;;;12.70;91.40;;;;;;6309276;22;20007;-75
2022/12/27 09:58:33;;;;;;;34.72;24.05;;;12.80;91.30;;;;;;6317487;22;20131;-74
2022/12/27 10:01:00;;;;;;;29.25;21.75;;;12.80;90.80;;;;;;6337613;22;20005;-74
2022/12/27 10:03:27;;;;;;;30.50;23.33;;;12.80;90.90;;;;;;6338826;22;20002;-75
2022/12/27 10:06:15;;;;;;;33.67;25.50;;;12.80;91.30;;;;;;6338708;22;20356;-74
2022/12/27 10:08:51;;;;;;;34.45;25.02;;;12.90;91.10;;;;;;6338842;22;20026;-75
2022/12/27 10:11:37;;;;;;;32.88;23.90;;;12.90;90.80;;;;;;6337671;22;20006;-73
2022/12/27 10:14:21;;;;;;;31.42;23.73;;;13.00;91.00;;;;;;6337381;22;20026;-74
2022/12/27 10:16:55;;;;;;;37.75;27.08;;;13.10;91.00;;;;;;6336968;22;20416;-74
2022/12/27 10:19:41;;;;;;;32.08;23.80;;;13.10;90.60;;;;;;6309883;22;20007;-81
2022/12/27 10:22:37;;;;;;;33.22;25.13;;;13.10;90.70;;;;;;6338279;22;20003;-80
2022/12/27 10:25:10;;;;;;;33.20;25.00;;;13.20;90.90;;;;;;6336643;22;20017;-81
2022/12/27 10:27:36;;;;;;;34.58;24.35;;;13.40;90.90;;;;;;6337510;22;20019;-75
2022/12/27 10:30:12;;;;;;;32.10;23.58;;;13.50;90.70;;;;;;6309459;22;20013;-81
2022/12/27 10:32:38;;;;;;;33.50;23.58;;;13.60;90.90;;;;;;6338897;22;20064;-81
2022/12/27 10:35:04;;;;;;;30.00;23.10;;;13.80;90.70;;;;;;6339130;22;20420;-82
2022/12/27 10:37:30;;;;;;;31.23;23.73;;;13.90;90.20;;;;;;6331713;22;19995;-80
2022/12/27 10:40:08;;;;;;;29.75;23.13;;;14.00;90.20;;;;;;6335853;22;20074;-80
2022/12/27 10:42:37;;;;;;;29.95;22.00;;;14.20;89.70;;;;;;6305793;22;20010;-73
2022/12/27 10:45:41;;;;;;;32.83;22.93;;;14.40;89.20;;;;;;6336604;22;20026;-74
2022/12/27 10:48:23;;;;;;;30.10;21.38;;;14.50;89.50;;;;;;6309644;22;20221;-74
2022/12/27 10:50:58;;;;;;;30.30;21.42;;;14.70;88.40;;;;;;6338303;22;20007;-82
2022/12/27 10:53:44;;;;;;;33.47;23.02;;;14.80;88.20;;;;;;6338107;22;19995;-82
2022/12/27 10:56:26;;;;;;;35.33;23.08;;;15.00;87.60;;;;;;6310447;22;20077;-83
2022/12/27 10:58:54;;;;;;;28.48;22.45;;;15.10;87.40;;;;;;6336963;22;19994;-83
2022/12/27 11:01:28;;;;;;;32.15;23.33;;;15.30;86.90;;;;;;6337973;22;20321;-83
2022/12/27 11:04:21;;;;;;;27.17;20.52;;;15.40;86.50;;;;;;6338555;22;19994;-83
2022/12/27 11:07:01;;;;;;;29.00;21.17;;;15.50;85.80;;;;;;6333092;22;20318;-83
2022/12/27 11:09:42;;;;;;;25.77;19.58;;;15.70;85.30;;;;;;6339250;22;20317;-84
2022/12/27 11:12:24;;;;;;;26.38;20.08;;;15.80;85.00;;;;;;6339347;22;19995;-81
2022/12/27 11:14:54;;;;;;;25.10;19.73;;;16.00;84.70;;;;;;6339632;22;19998;-82
2022/12/27 11:17:25;;;;;;;24.38;19.10;;;16.10;84.20;;;;;;6338812;22;20001;-82
2022/12/27 11:19:51;;;;;;;27.77;21.20;;;16.30;83.60;;;;;;6338438;22;20010;-82
2022/12/27 11:22:17;;;;;;;27.42;21.00;;;16.30;82.60;;;;;;6338750;22;20003;-82
2022/12/27 11:24:48;;;;;;;28.02;21.55;;;16.30;82.20;;;;;;6338948;22;19998;-82
2022/12/27 11:27:24;;;;;;;28.00;21.40;;;16.30;81.80;;;;;;6338812;22;20073;-81
2022/12/27 11:29:52;;;;;;;28.58;20.83;;;16.30;81.50;;;;;;6333599;22;20002;-81
2022/12/27 11:32:22;;;;;;;31.10;23.35;;;16.20;81.50;;;;;;6337831;22;20003;-81
2022/12/27 11:34:51;;;;;;;33.22;21.92;;;16.20;81.40;;;;;;6338391;22;20402;-81
2022/12/27 11:37:20;;;;;;;31.08;22.88;;;16.20;81.40;;;;;;6336773;22;20009;-75
2022/12/27 11:39:51;;;;;;;30.67;22.90;;;16.30;81.70;;;;;;6337585;22;20014;-76
2022/12/27 11:42:37;;;;;;;33.83;24.50;;;16.60;82.10;;;;;;6337914;22;20228;-75
2022/12/27 11:45:14;;;;;;;32.22;23.73;;;16.90;81.60;;;;;;6338522;22;20061;-75
2022/12/27 11:48:13;;;;;;;32.20;25.23;;;17.20;81.30;;;;;;6337401;22;20394;-75
2022/12/27 11:50:46;;;;;;;33.13;24.35;;;17.70;80.00;;;;;;6336602;22;20003;-74
2022/12/27 11:53:17;;;;;;;31.20;24.30;;;18.40;77.80;;;;;;6338195;22;20003;-74
2022/12/27 11:55:52;;;;;;;32.00;21.73;;;18.90;76.00;;;;;;6337587;22;20294;-74
2022/12/27 11:58:42;;;;;;;32.17;24.80;;;19.40;76.70;;;;;;6338610;22;19995;-72
2022/12/27 12:01:35;;;;;;;31.05;24.42;;;20.10;75.00;;;;;;6336747;22;20009;-72
2022/12/27 12:04:19;;;;;;;34.42;26.27;;;20.70;72.00;;;;;;6310586;22;20038;-73
2022/12/27 12:07:00;;;;;;;31.23;25.48;;;21.00;70.50;;;;;;6337472;22;20003;-73
2022/12/27 12:09:44;;;;;;;34.45;25.92;;;21.40;69.60;;;;;;6337743;22;20502;-73
2022/12/27 12:12:38;;;;;;;34.40;28.70;;;21.60;68.90;;;;;;6310289;22;20405;-73
2022/12/27 12:15:28;;;;;;;39.80;30.48;;;21.80;65.70;;;;;;6337609;22;20003;-72
2022/12/27 12:18:15;;;;;;;39.90;28.70;;;21.50;66.20;;;;;;6336658;22;19999;-72
2022/12/27 12:20:42;;;;;;;35.70;29.38;;;20.90;66.70;;;;;;6330549;22;20236;-72
2022/12/27 12:23:23;;;;;;;40.75;32.15;;;20.60;67.80;;;;;;6337360;22;20312;-72
2022/12/27 12:26:22;;;;;;;41.42;32.17;;;20.60;68.60;;;;;;6336196;22;20036;-72
2022/12/27 12:29:20;;;;;;;46.10;33.17;;;20.70;68.60;;;;;;6307955;22;20044;-80
2022/12/27 12:32:08;;;;;;;43.17;33.17;;;20.90;68.70;;;;;;6283695;22;20003;-80
2022/12/27 12:35:11;;;;;;;47.42;33.60;;;21.00;68.60;;;;;;6337979;22;19995;-80
2022/12/27 12:38:00;;;;;;;50.47;34.42;;;21.10;68.20;;;;;;6337949;22;20007;-80
2022/12/27 12:40:53;;;;;;;47.25;36.20;;;21.10;67.80;;;;;;6338208;22;20444;-79
2022/12/27 12:43:28;;;;;;;45.47;36.10;;;21.00;68.00;;;;;;6338415;22;20074;-80
2022/12/27 12:45:59;;;;;;;46.95;36.45;;;20.90;68.30;;;;;;6338246;22;20003;-80
2022/12/27 12:48:49;;;;;;;46.67;34.70;;;20.70;68.60;;;;;;6338590;22;20010;-80
2022/12/27 12:51:18;;;;;;;;;;;20.60;69.00;;;;;;6337965;22;20007;-81
2022/12/27 12:54:08;;;;;;;46.25;34.03;;;20.50;69.10;;;;;;6337974;22;19937;-80
2022/12/27 12:56:50;;;;;;;48.45;36.17;;;20.30;69.70;;;;;;6309971;22;20375;-81
2022/12/27 12:59:37;;;;;;;46.50;35.10;;;20.20;69.50;;;;;;6338940;22;20009;-81
2022/12/27 13:02:18;;;;;;;47.60;35.22;;;20.10;69.50;;;;;;6336469;22;19995;-81
2022/12/27 13:05:07;;;;;;;50.17;36.45;;;19.90;69.60;;;;;;6337678;22;20410;-80
2022/12/27 13:08:00;;;;;;;50.38;38.10;;;19.90;70.30;;;;;;6337933;22;20021;-80
2022/12/27 13:10:54;;;;;;;48.13;36.65;;;19.70;70.00;;;;;;6338290;22;20078;-73
2022/12/27 13:13:26;;;;;;;45.10;36.25;;;19.60;70.70;;;;;;6323325;22;20055;-80
2022/12/27 13:16:23;;;;;;;47.97;36.47;;;19.40;70.30;;;;;;6337032;22;20063;-74
2022/12/27 13:19:34;;;;;;;48.67;36.85;;;19.40;71.10;;;;;;6338655;22;20065;-74
2022/12/27 13:22:16;;;;;;;46.45;35.92;;;19.20;71.60;;;;;;6335905;22;20424;-73
2022/12/27 13:25:18;;;;;;;55.45;37.22;;;19.10;71.70;;;;;;6335794;22;20010;-81
2022/12/27 13:27:50;;;;;;;51.65;37.30;;;18.90;71.90;;;;;;6337638;22;20020;-81
2022/12/27 13:30:28;;;;;;;51.00;37.33;;;18.70;72.30;;;;;;6333489;22;20408;-81
2022/12/27 13:33:16;;;;;;;47.92;36.58;;;18.30;72.60;;;;;;6336902;22;20030;-80
2022/12/27 13:36:01;;;;;;;49.95;36.80;;;18.00;73.30;;;;;;6335354;22;19998;-74
2022/12/27 13:38:37;;;;;;;53.65;36.92;;;18.00;73.90;;;;;;6336893;22;20078;-74
2022/12/27 13:41:08;;;;;;;50.58;35.55;;;17.60;74.50;;;;;;6335928;22;20006;-75
2022/12/27 13:44:11;;;;;;;52.42;38.40;;;17.30;75.40;;;;;;6336534;22;20005;-74
2022/12/27 13:47:03;;;;;;;49.72;35.88;;;17.20;76.20;;;;;;6337400;22;20413;-75
2022/12/27 13:49:43;;;;;;;50.08;35.80;;;17.00;76.80;;;;;;6337818;22;19999;-75
2022/12/27 13:52:28;;;;;;;50.80;35.35;;;16.80;77.20;;;;;;6310746;22;20321;-75
2022/12/27 13:55:04;;;;;;;54.47;36.67;;;16.70;78.10;;;;;;6309484;22;20006;-75
2022/12/27 13:57:39;;;;;;;55.42;36.25;;;16.60;78.70;;;;;;6336934;22;20002;-75
2022/12/27 14:00:08;;;;;;;53.15;37.40;;;16.50;79.20;;;;;;6309768;22;20053;-75
2022/12/27 14:02:36;;;;;;;55.35;37.35;;;16.40;79.50;;;;;;6338444;22;20040;-75
2022/12/27 14:05:17;;;;;;;57.53;38.15;;;16.20;80.00;;;;;;6337118;22;20116;-75
2022/12/27 14:08:12;;;;;;;51.17;36.08;;;16.10;80.40;;;;;;6338427;22;20026;-75
2022/12/27 14:10:48;;;;;;;50.40;35.47;;;16.00;80.80;;;;;;6337936;22;20007;-75
2022/12/27 14:13:37;;;;;;;52.95;35.28;;;15.90;81.20;;;;;;6338695;22;19995;-74
2022/12/27 14:16:18;;;;;;;51.53;36.03;;;15.80;81.60;;;;;;6336852;22;20003;-75
2022/12/27 14:19:13;;;;;;;54.05;36.90;;;15.70;82.00;;;;;;6338847;22;19999;-75
2022/12/27 14:21:42;;;;;;;54.95;37.25;;;15.70;82.50;;;;;;6338662;22;20005;-75
2022/12/27 14:24:13;;;;;;;57.58;38.33;;;15.60;82.80;;;;;;6338088;22;19999;-75
2022/12/27 14:26:56;;;;;;;57.70;37.25;;;15.50;83.00;;;;;;6338438;22;19995;-75
2022/12/27 14:29:53;;;;;;;59.28;38.85;;;15.50;83.30;;;;;;6337474;22;20011;-70
2022/12/27 14:32:37;;;;;;;53.42;35.85;;;15.40;83.40;;;;;;6337973;22;19999;-70
2022/12/27 14:35:21;;;;;;;54.42;35.20;;;15.30;83.80;;;;;;6338561;22;20290;-70
2022/12/27 14:38:05;;;;;;;54.50;36.60;;;15.30;84.10;;;;;;6337726;22;20006;-71
2022/12/27 14:40:56;;;;;;;55.92;37.28;;;15.20;84.20;;;;;;6309615;22;20436;-70
2022/12/27 14:43:39;;;;;;;57.63;35.40;;;15.20;84.40;;;;;;6337465;22;20078;-70
2022/12/27 14:46:26;;;;;;;57.22;35.88;;;15.10;84.20;;;;;;6335276;22;20064;-80